Portada
METAR-TAF:

METAR-TAF

Aeroports :

Comiso, Itàlia

latitud: 36-59-30N, longitud: 14-36-25E, altitud: 190 m

Observació

L'informe es va fer fa 16 hores i 9 minuts, a les 14:50 UTC
Vent 11 kt del Oest
Temperatura 12°C
Humitat 71%
Pressió 1006 hPa
Visibilitat 10 km o més
Núvols disperses a una alçada de 3000 ft

METAR: LICB 201450Z 27011KT 9999 SCT030 12/07 Q1006

Hora: 07:59 (06:59 UTC)

Pronòstic

L'informe es va fer fa 16 hores i 59 minuts, a les 14:00 UTC
Pronòstic vàlid del 20 a les 15 UTC al 20 a les 24 UTC
Vent 12 kt del Oest
Visibilitat 10 km o més
Núvols disperses a una alçada de 3000 ft
Evolucionant progressivament
l' 20 a les 18 UTC al 20 a les 20 UTC
Vent 4 kt amb direcció variable
Temporalment
l' 20 a les 21 UTC al 20 a les 24 UTC
xàfecs de pluja

TAF: LICB 201400Z 2015/2024 26012KT 9999 SCT030 BECMG 2018/2020 VRB04KT TEMPO 2021/2024 SHRA

Observacions i pronòstics meteorològics de més de 4000 aeroports (METAR i TAF).

Les estacions disponibles són els punts grocs i vermells al mapa.

Posi el ratolí al punt desitjat per veure el nom de l'estació.

Feu clic per veure les observacions i els pronòstics meteorològics.

Per canviar el mapa: feu clic els botons verds amb una creu de color negre per apropar; al botó verd amb un guió per allunyar la imatge; o en les fletxes verdes per a mapes adjacents.


METAR-TAF: